Time;durP1;ratioP1;P1;durP2;ratioP2;P2;SDS_P1;SDS_P2;PMS_P1;PMS_P2;Temp;Humidity;BMP_temperature;BMP_pressure;BME280_temperature;BME280_humidity;BME280_pressure;Samples;Min_cycle;Max_cycle;Signal;HPM_P1;HPM_P2
2022/10/27 00:01:17;;;;;;;0.55;0.55;;;17.50;94.20;;;;;;4002756;29;20050;-60
2022/10/27 00:03:57;;;;;;;0.00;0.00;;;17.50;94.20;;;;;;4002852;29;20057;-61
2022/10/27 00:06:38;;;;;;;0.00;0.00;;;17.50;94.20;;;;;;4014191;29;20061;-61
2022/10/27 00:09:19;;;;;;;0.00;0.00;;;17.50;94.20;;;;;;4016116;29;20048;-61
2022/10/27 00:12:01;;;;;;;0.00;0.00;;;17.50;94.20;;;;;;4014426;29;20056;-60
2022/10/27 00:14:42;;;;;;;0.00;0.00;;;17.50;94.30;;;;;;4017494;29;20057;-61
2022/10/27 00:17:23;;;;;;;0.00;0.00;;;17.50;94.30;;;;;;4017064;29;20406;-60
2022/10/27 00:20:05;;;;;;;0.15;0.15;;;17.50;94.30;;;;;;4017328;29;20197;-60
2022/10/27 00:22:46;;;;;;;0.00;0.00;;;17.50;94.30;;;;;;4002081;29;20057;-60
2022/10/27 00:25:27;;;;;;;0.00;0.00;;;17.50;94.40;;;;;;3990417;29;20056;-60
2022/10/27 00:28:09;;;;;;;0.00;0.00;;;17.50;94.40;;;;;;3993625;29;20061;-60
2022/10/27 00:30:58;;;;;;;0.00;0.00;;;17.50;94.40;;;;;;4015487;29;20059;-60
2022/10/27 00:33:39;;;;;;;0.32;0.32;;;17.50;94.40;;;;;;4005986;29;20064;-61
2022/10/27 00:36:22;;;;;;;0.30;0.30;;;17.50;94.40;;;;;;4017034;29;20638;-60
2022/10/27 00:39:03;;;;;;;0.00;0.00;;;17.50;94.40;;;;;;4001429;29;20056;-60
2022/10/27 00:41:45;;;;;;;1.10;1.10;;;17.50;94.80;;;;;;4001228;29;20073;-61
2022/10/27 00:44:33;;;;;;;0.10;0.10;;;17.50;94.40;;;;;;4003370;29;20055;-60
2022/10/27 00:47:20;;;;;;;0.00;0.00;;;17.50;94.40;;;;;;4001348;29;20416;-61
2022/10/27 00:50:05;;;;;;;0.47;0.47;;;17.50;94.40;;;;;;4001599;29;20065;-61
2022/10/27 00:52:48;;;;;;;0.45;0.45;;;17.40;94.40;;;;;;3998774;29;20461;-60
2022/10/27 00:55:33;;;;;;;0.00;0.00;;;17.40;94.40;;;;;;4002872;29;20085;-60
2022/10/27 00:58:18;;;;;;;0.00;0.00;;;17.40;94.40;;;;;;4016735;29;20061;-61
2022/10/27 01:01:01;;;;;;;0.00;0.00;;;17.40;94.40;;;;;;4016105;29;20129;-60
2022/10/27 01:03:43;;;;;;;0.00;0.00;;;17.40;94.40;;;;;;4016304;29;20055;-61
2022/10/27 01:06:24;;;;;;;0.03;0.03;;;17.40;94.40;;;;;;4013388;29;20076;-61
2022/10/27 01:09:06;;;;;;;0.00;0.00;;;17.40;94.50;;;;;;4016326;29;20502;-60
2022/10/27 01:11:47;;;;;;;0.00;0.00;;;17.40;94.50;;;;;;4013906;29;20060;-60
2022/10/27 01:14:28;;;;;;;0.00;0.00;;;17.40;94.50;;;;;;4013562;29;20061;-61
2022/10/27 01:17:21;;;;;;;0.00;0.00;;;17.40;94.50;;;;;;3999888;29;20579;-61
2022/10/27 01:20:44;;;;;;;0.00;0.00;;;17.40;94.50;;;;;;3998606;29;20076;-61
2022/10/27 01:23:36;;;;;;;0.00;0.00;;;17.40;94.50;;;;;;4000978;29;20072;-60
2022/10/27 01:26:47;;;;;;;1.38;1.13;;;17.40;94.50;;;;;;4010228;29;20064;-61
2022/10/27 01:29:51;;;;;;;0.00;0.00;;;17.40;94.50;;;;;;4015851;29;20081;-60
2022/10/27 01:32:40;;;;;;;0.00;0.00;;;17.40;94.50;;;;;;4016248;29;20064;-60
2022/10/27 01:35:28;;;;;;;0.25;0.25;;;17.40;94.50;;;;;;4013321;29;20085;-61
2022/10/27 01:38:13;;;;;;;0.00;0.00;;;17.40;94.60;;;;;;4015973;29;20068;-60
2022/10/27 01:41:01;;;;;;;0.00;0.00;;;17.40;94.60;;;;;;4013266;29;20056;-61
2022/10/27 01:43:43;;;;;;;0.20;0.20;;;17.40;94.60;;;;;;4015564;29;20060;-61
2022/10/27 01:46:25;;;;;;;0.20;0.20;;;17.40;94.60;;;;;;4015535;29;20073;-61
2022/10/27 01:49:08;;;;;;;0.00;0.00;;;17.40;94.60;;;;;;4010141;29;20057;-60
2022/10/27 01:51:49;;;;;;;0.00;0.00;;;17.40;95.00;;;;;;4016144;29;20055;-61
2022/10/27 01:54:30;;;;;;;0.30;0.30;;;17.40;94.70;;;;;;4015812;29;20470;-60
2022/10/27 01:57:23;;;;;;;0.00;0.00;;;17.30;94.70;;;;;;4016200;29;20057;-60
2022/10/27 02:00:06;;;;;;;0.00;0.00;;;17.40;94.80;;;;;;4015422;29;20402;-61
2022/10/27 02:02:49;;;;;;;0.00;0.00;;;17.30;94.70;;;;;;4015841;29;20064;-61
2022/10/27 02:05:41;;;;;;;0.00;0.00;;;17.30;94.70;;;;;;4004635;29;20060;-61
2022/10/27 02:08:32;;;;;;;0.00;0.00;;;17.40;94.70;;;;;;4015718;29;20121;-61
2022/10/27 02:11:13;;;;;;;0.00;0.00;;;17.30;94.70;;;;;;4015768;29;20060;-60
2022/10/27 02:13:57;;;;;;;0.20;0.20;;;17.30;94.70;;;;;;4004544;29;20101;-60
2022/10/27 02:16:42;;;;;;;0.00;0.00;;;17.30;94.70;;;;;;4018328;29;20080;-60
2022/10/27 02:19:27;;;;;;;0.45;0.45;;;17.30;94.70;;;;;;4018761;29;20057;-60
2022/10/27 02:22:11;;;;;;;0.00;0.00;;;17.30;94.70;;;;;;4018504;29;20056;-61
2022/10/27 02:24:52;;;;;;;0.22;0.22;;;17.30;94.70;;;;;;4018969;29;20521;-60
2022/10/27 02:27:37;;;;;;;0.00;0.00;;;17.30;94.70;;;;;;4019032;29;20068;-60
2022/10/27 02:30:17;;;;;;;0.63;0.63;;;17.30;94.70;;;;;;4018422;29;20084;-61
2022/10/27 02:32:59;;;;;;;0.00;0.00;;;17.30;94.70;;;;;;4018830;29;20060;-60
2022/10/27 02:35:41;;;;;;;1.85;1.75;;;17.30;94.70;;;;;;4018270;29;20068;-60
2022/10/27 02:38:24;;;;;;;0.00;0.00;;;17.30;94.80;;;;;;4018624;29;20386;-61
2022/10/27 02:41:06;;;;;;;0.00;0.00;;;17.30;95.10;;;;;;4017976;29;20394;-60
2022/10/27 02:43:47;;;;;;;0.00;0.00;;;17.30;94.70;;;;;;4018204;29;20088;-61
2022/10/27 02:46:27;;;;;;;0.83;0.83;;;17.30;94.70;;;;;;4018760;29;20072;-60
2022/10/27 02:49:08;;;;;;;0.00;0.00;;;17.30;94.80;;;;;;4017065;29;20661;-62
2022/10/27 02:51:49;;;;;;;0.00;0.00;;;17.30;94.80;;;;;;4014389;29;20057;-63
2022/10/27 02:54:32;;;;;;;0.00;0.00;;;17.20;94.80;;;;;;4015392;29;20060;-62
2022/10/27 02:57:13;;;;;;;0.38;0.38;;;17.20;94.80;;;;;;4015826;29;20064;-62
2022/10/27 02:59:54;;;;;;;0.10;0.10;;;17.20;94.80;;;;;;4018284;29;20469;-62
2022/10/27 03:02:34;;;;;;;0.00;0.00;;;17.20;95.20;;;;;;4003062;29;20069;-62
2022/10/27 03:05:15;;;;;;;0.85;0.63;;;17.20;94.80;;;;;;4004491;29;20056;-62
2022/10/27 03:07:57;;;;;;;0.25;0.25;;;17.20;94.80;;;;;;4018394;29;20076;-62
2022/10/27 03:10:38;;;;;;;0.00;0.00;;;17.30;94.80;;;;;;4018338;29;20064;-62
2022/10/27 03:13:19;;;;;;;0.00;0.00;;;17.20;94.80;;;;;;4007206;29;20064;-62
2022/10/27 03:16:00;;;;;;;0.05;0.05;;;17.20;94.80;;;;;;4018344;29;20076;-62
2022/10/27 03:18:41;;;;;;;0.00;0.00;;;17.30;94.90;;;;;;4018012;29;20500;-63
2022/10/27 03:21:22;;;;;;;0.00;0.00;;;17.20;94.80;;;;;;4017559;29;20056;-63
2022/10/27 03:24:04;;;;;;;0.00;0.00;;;17.20;94.80;;;;;;4017954;29;20125;-62
2022/10/27 03:26:46;;;;;;;0.00;0.00;;;17.20;94.90;;;;;;4017663;29;20069;-62
2022/10/27 03:29:26;;;;;;;1.40;0.50;;;17.20;94.90;;;;;;4017971;29;20700;-62
2022/10/27 03:32:07;;;;;;;0.00;0.00;;;17.20;94.90;;;;;;4002793;29;20082;-63
2022/10/27 03:34:48;;;;;;;0.00;0.00;;;17.20;94.90;;;;;;4001385;29;20130;-63
2022/10/27 03:37:29;;;;;;;0.10;0.10;;;17.20;94.90;;;;;;4000065;29;20141;-62
2022/10/27 03:40:12;;;;;;;0.00;0.00;;;17.20;94.90;;;;;;4015463;29;20071;-63
2022/10/27 03:42:57;;;;;;;0.00;0.00;;;17.20;94.90;;;;;;4015065;29;20076;-63
2022/10/27 03:45:38;;;;;;;0.00;0.00;;;17.20;94.90;;;;;;4017894;29;20060;-62
2022/10/27 03:48:19;;;;;;;0.47;0.47;;;17.20;94.90;;;;;;4017433;29;20057;-63
2022/10/27 03:51:00;;;;;;;0.00;0.00;;;17.20;94.90;;;;;;4017211;29;20061;-62
2022/10/27 03:53:40;;;;;;;2.97;1.38;;;17.20;94.90;;;;;;4017497;29;20106;-63
2022/10/27 03:56:21;;;;;;;0.00;0.00;;;17.20;94.90;;;;;;4017311;29;20056;-63
2022/10/27 03:59:04;;;;;;;0.08;0.08;;;17.20;95.00;;;;;;4017628;29;20056;-60
2022/10/27 04:01:44;;;;;;;0.10;0.10;;;17.20;95.00;;;;;;4016991;29;20060;-60
2022/10/27 04:04:25;;;;;;;0.00;0.00;;;17.20;95.00;;;;;;4017251;29;20052;-60
2022/10/27 04:07:06;;;;;;;0.00;0.00;;;17.20;95.00;;;;;;4020175;29;20512;-60
2022/10/27 04:09:47;;;;;;;0.00;0.00;;;17.20;95.00;;;;;;4032450;29;20128;-60
2022/10/27 04:12:28;;;;;;;0.00;0.00;;;17.20;95.00;;;;;;4020002;29;20187;-60
2022/10/27 04:15:10;;;;;;;0.00;0.00;;;17.20;95.00;;;;;;4032536;29;20417;-60
2022/10/27 04:17:53;;;;;;;0.00;0.00;;;17.20;95.00;;;;;;4032727;29;20113;-60
2022/10/27 04:20:34;;;;;;;0.00;0.00;;;17.10;95.00;;;;;;4032272;29;20060;-61
2022/10/27 04:23:15;;;;;;;0.05;0.05;;;17.20;95.00;;;;;;4032564;29;20060;-60
2022/10/27 04:25:56;;;;;;;0.00;0.00;;;17.10;95.00;;;;;;4032280;29;20060;-60
2022/10/27 04:28:37;;;;;;;0.00;0.00;;;17.10;95.00;;;;;;4032332;29;20196;-60
2022/10/27 04:31:19;;;;;;;0.28;0.28;;;17.20;95.00;;;;;;4017305;29;20057;-60
2022/10/27 04:34:00;;;;;;;0.00;0.00;;;17.10;95.00;;;;;;4016988;29;20071;-60
2022/10/27 04:36:41;;;;;;;0.30;0.30;;;17.20;95.10;;;;;;4016906;29;20110;-60
2022/10/27 04:39:22;;;;;;;0.35;0.35;;;17.10;95.00;;;;;;4026019;29;20536;-60
2022/10/27 04:42:03;;;;;;;;;;;17.10;95.10;;;;;;4021251;29;20056;-60
2022/10/27 04:44:44;;;;;;;0.90;0.90;;;17.10;95.50;;;;;;4032474;29;20382;-60
2022/10/27 04:47:26;;;;;;;0.40;0.40;;;17.10;95.30;;;;;;4020898;29;20063;-60
2022/10/27 04:50:08;;;;;;;0.00;0.00;;;17.10;95.10;;;;;;4031603;29;20055;-61
2022/10/27 04:52:56;;;;;;;0.00;0.00;;;17.10;95.10;;;;;;4032142;29;20780;-61
2022/10/27 04:55:37;;;;;;;0.20;0.20;;;17.10;95.20;;;;;;4032115;29;20060;-60
2022/10/27 04:58:18;;;;;;;0.00;0.00;;;17.10;95.30;;;;;;4031795;29;20196;-60
2022/10/27 05:00:59;;;;;;;0.00;0.00;;;17.10;95.20;;;;;;4031816;29;20124;-61
2022/10/27 05:03:41;;;;;;;0.28;0.28;;;17.10;95.30;;;;;;4031512;29;20060;-60
2022/10/27 05:06:22;;;;;;;0.00;0.00;;;17.10;95.30;;;;;;4022614;29;20072;-60
2022/10/27 05:09:03;;;;;;;0.00;0.00;;;17.10;95.30;;;;;;4016428;29;20065;-60
2022/10/27 05:11:44;;;;;;;0.00;0.00;;;17.10;95.40;;;;;;4016436;29;20048;-60
2022/10/27 05:14:25;;;;;;;1.25;1.25;;;17.10;95.40;;;;;;4016686;29;20549;-61
2022/10/27 05:17:06;;;;;;;0.00;0.00;;;17.10;95.40;;;;;;4016329;29;20057;-60
2022/10/27 05:19:48;;;;;;;0.00;0.00;;;17.10;95.40;;;;;;4015314;29;20504;-61
2022/10/27 05:22:29;;;;;;;0.00;0.00;;;17.10;95.40;;;;;;4016155;29;20141;-61
2022/10/27 05:25:11;;;;;;;0.00;0.00;;;17.10;95.80;;;;;;4016264;29;20060;-61
2022/10/27 05:27:51;;;;;;;;;;;17.10;95.40;;;;;;4016310;29;20113;-60
2022/10/27 05:30:33;;;;;;;0.00;0.00;;;17.00;95.40;;;;;;4016139;29;19934;-60
2022/10/27 05:33:14;;;;;;;0.00;0.00;;;17.00;95.30;;;;;;4015538;29;20520;-61
2022/10/27 05:35:56;;;;;;;0.55;0.55;;;17.00;95.30;;;;;;4016180;29;20141;-61
2022/10/27 05:38:38;;;;;;;4.38;4.00;;;17.10;95.40;;;;;;4001024;29;20188;-61
2022/10/27 05:41:19;;;;;;;0.00;0.00;;;17.00;95.40;;;;;;4000847;29;20052;-60
2022/10/27 05:43:59;;;;;;;0.05;0.05;;;17.00;95.40;;;;;;4001150;29;20061;-61
2022/10/27 05:46:41;;;;;;;0.00;0.00;;;17.00;95.40;;;;;;4004920;29;20052;-60
2022/10/27 05:49:22;;;;;;;0.00;0.00;;;17.00;95.40;;;;;;4016153;29;20064;-61
2022/10/27 05:52:04;;;;;;;0.75;0.47;;;17.00;95.50;;;;;;4015775;29;20052;-61
2022/10/27 05:54:45;;;;;;;0.13;0.13;;;17.00;95.50;;;;;;4005000;29;20106;-60
2022/10/27 05:57:26;;;;;;;0.10;0.10;;;17.00;95.50;;;;;;4015838;29;20073;-60
2022/10/27 06:00:09;;;;;;;0.00;0.00;;;17.00;95.50;;;;;;4016041;29;20530;-60
2022/10/27 06:02:50;;;;;;;0.00;0.00;;;17.00;95.50;;;;;;4015963;29;20057;-60
2022/10/27 06:05:32;;;;;;;0.15;0.15;;;17.00;95.50;;;;;;4005259;29;20566;-60
2022/10/27 06:08:15;;;;;;;0.00;0.00;;;17.00;95.50;;;;;;4015870;29;20182;-61
2022/10/27 06:10:56;;;;;;;1.50;1.50;;;17.00;95.60;;;;;;4015398;29;20063;-61
2022/10/27 06:13:37;;;;;;;5.20;2.50;;;17.10;95.90;;;;;;4015954;29;20064;-61
2022/10/27 06:16:20;;;;;;;0.50;0.50;;;17.10;96.00;;;;;;4015794;29;20061;-62
2022/10/27 06:19:00;;;;;;;0.10;0.10;;;17.20;96.10;;;;;;4014579;29;20512;-61
2022/10/27 06:21:41;;;;;;;1.08;1.00;;;17.20;95.90;;;;;;4008225;29;20056;-61
2022/10/27 06:24:23;;;;;;;0.00;0.00;;;17.20;95.90;;;;;;4001848;29;20441;-61
2022/10/27 06:27:04;;;;;;;0.08;0.08;;;17.20;95.80;;;;;;4015682;29;20137;-61
2022/10/27 06:29:45;;;;;;;0.75;0.73;;;17.20;95.70;;;;;;4015752;29;20060;-61
2022/10/27 06:32:26;;;;;;;2.85;1.38;;;17.20;95.70;;;;;;4015115;29;20105;-61
2022/10/27 06:35:08;;;;;;;0.00;0.00;;;17.20;95.70;;;;;;4008920;29;20056;-62
2022/10/27 06:37:49;;;;;;;0.38;0.38;;;17.10;95.60;;;;;;4015744;29;20056;-61
2022/10/27 06:40:31;;;;;;;0.00;0.00;;;17.20;95.70;;;;;;4015764;29;20060;-61
2022/10/27 06:43:12;;;;;;;0.63;0.63;;;17.10;95.60;;;;;;4015740;29;20076;-61
2022/10/27 06:45:53;;;;;;;0.52;0.52;;;17.10;95.60;;;;;;4015126;29;20048;-61
2022/10/27 06:48:36;;;;;;;0.10;0.10;;;17.10;95.60;;;;;;4015368;29;20065;-63
2022/10/27 06:51:17;;;;;;;0.10;0.10;;;17.10;95.60;;;;;;4015786;29;20397;-62
2022/10/27 06:53:58;;;;;;;0.05;0.05;;;17.10;95.60;;;;;;4000585;29;20596;-61
2022/10/27 06:56:40;;;;;;;0.20;0.20;;;17.10;95.60;;;;;;4000802;29;20057;-62
2022/10/27 06:59:21;;;;;;;0.17;0.17;;;17.10;95.60;;;;;;4000421;29;20541;-62
2022/10/27 07:02:03;;;;;;;3.30;1.98;;;17.10;95.60;;;;;;4000323;29;20052;-62
2022/10/27 07:04:43;;;;;;;0.00;0.00;;;17.10;95.60;;;;;;4003409;29;20183;-62
2022/10/27 07:07:24;;;;;;;0.20;0.20;;;17.10;95.60;;;;;;4003106;29;20130;-61
2022/10/27 07:10:07;;;;;;;0.85;0.85;;;17.10;95.60;;;;;;4002763;29;20098;-61
2022/10/27 07:12:54;;;;;;;0.00;0.00;;;17.10;95.50;;;;;;4003176;29;20056;-61
2022/10/27 07:15:37;;;;;;;0.00;0.00;;;17.10;95.60;;;;;;4002857;29;20513;-62
2022/10/27 07:18:18;;;;;;;0.00;0.00;;;17.00;95.50;;;;;;4014155;29;20076;-62
2022/10/27 07:21:00;;;;;;;3.78;1.95;;;17.10;95.50;;;;;;4017703;29;20056;-62
2022/10/27 07:23:41;;;;;;;0.00;0.00;;;17.10;95.50;;;;;;4017960;29;20064;-63
2022/10/27 07:26:22;;;;;;;1.05;1.02;;;17.10;95.50;;;;;;4016996;29;20120;-63
2022/10/27 07:29:04;;;;;;;0.55;0.55;;;17.10;95.50;;;;;;4002691;29;20056;-62
2022/10/27 07:31:45;;;;;;;0.00;0.00;;;17.00;95.50;;;;;;4015000;29;20051;-63
2022/10/27 07:34:26;;;;;;;0.13;0.13;;;17.10;95.90;;;;;;4002767;29;20057;-63
2022/10/27 07:37:07;;;;;;;0.55;0.55;;;17.10;95.50;;;;;;4007923;29;20128;-63
2022/10/27 07:39:49;;;;;;;1.02;0.50;;;17.10;95.50;;;;;;4006383;29;20430;-63
2022/10/27 07:42:29;;;;;;;;;;;17.10;95.10;;;;;;4018113;29;20072;-63
2022/10/27 07:45:13;;;;;;;0.00;0.00;;;17.10;95.50;;;;;;4017423;29;19940;-63
2022/10/27 07:47:55;;;;;;;0.03;0.03;;;17.00;95.40;;;;;;4017222;29;20078;-63
2022/10/27 07:50:36;;;;;;;0.20;0.20;;;17.00;95.80;;;;;;4017369;29;20060;-63
2022/10/27 07:53:17;;;;;;;1.35;0.95;;;17.00;95.40;;;;;;4017098;29;20051;-64
2022/10/27 07:55:58;;;;;;;0.00;0.00;;;17.00;95.40;;;;;;3991279;29;20069;-64
2022/10/27 07:58:39;;;;;;;1.27;0.85;;;17.00;95.40;;;;;;4002332;29;20053;-64
2022/10/27 08:01:21;;;;;;;0.00;0.00;;;17.00;95.40;;;;;;4002157;29;20073;-64
2022/10/27 08:04:03;;;;;;;0.00;0.00;;;17.00;95.40;;;;;;4002170;29;20069;-64
2022/10/27 08:06:44;;;;;;;0.00;0.00;;;17.10;95.40;;;;;;4002193;29;20130;-64
2022/10/27 08:09:25;;;;;;;0.15;0.15;;;17.00;95.40;;;;;;4002210;29;20061;-64
2022/10/27 08:12:06;;;;;;;0.03;0.03;;;17.10;95.40;;;;;;4017170;29;20181;-63
2022/10/27 08:14:47;;;;;;;0.00;0.00;;;17.00;95.40;;;;;;4001837;29;20056;-64
2022/10/27 08:17:33;;;;;;;0.50;0.50;;;17.00;95.40;;;;;;4001844;29;20069;-64
2022/10/27 08:20:14;;;;;;;0.25;0.25;;;17.00;95.30;;;;;;4001828;29;20277;-65
2022/10/27 08:22:55;;;;;;;0.03;0.03;;;17.10;95.40;;;;;;4001820;29;20061;-64
2022/10/27 08:25:36;;;;;;;0.00;0.00;;;17.10;95.30;;;;;;4001672;29;20517;-64
2022/10/27 08:28:17;;;;;;;0.45;0.45;;;17.10;95.30;;;;;;4011824;29;20209;-64
2022/10/27 08:30:58;;;;;;;0.17;0.17;;;17.10;95.30;;;;;;4015925;29;20060;-64
2022/10/27 08:33:40;;;;;;;1.55;1.00;;;17.10;95.30;;;;;;4015703;29;20113;-64
2022/10/27 08:36:21;;;;;;;0.00;0.00;;;17.10;95.30;;;;;;4016777;29;20056;-64
2022/10/27 08:39:02;;;;;;;0.35;0.35;;;17.10;95.20;;;;;;4016160;29;20145;-63
2022/10/27 08:41:52;;;;;;;0.30;0.30;;;17.10;95.20;;;;;;4016534;29;20120;-64
2022/10/27 08:44:37;;;;;;;0.10;0.10;;;17.10;95.20;;;;;;4013878;29;20052;-62
2022/10/27 08:47:21;;;;;;;23.27;1.80;;;17.10;95.20;;;;;;4016781;29;20824;-62
2022/10/27 08:50:10;;;;;;;0.15;0.15;;;17.10;95.20;;;;;;4016907;29;20064;-61
2022/10/27 08:52:56;;;;;;;0.68;0.68;;;17.10;95.10;;;;;;4015931;29;20065;-61
2022/10/27 08:55:52;;;;;;;0.00;0.00;;;17.10;95.10;;;;;;4016243;29;20574;-62
2022/10/27 08:58:37;;;;;;;0.00;0.00;;;17.10;95.10;;;;;;4016143;29;20066;-62
2022/10/27 09:01:29;;;;;;;0.00;0.00;;;17.10;95.10;;;;;;4016191;29;20181;-62
2022/10/27 09:04:23;;;;;;;0.35;0.35;;;17.10;95.10;;;;;;4015346;29;20441;-63
2022/10/27 09:07:18;;;;;;;0.38;0.38;;;17.10;95.10;;;;;;4016630;29;20056;-61
2022/10/27 09:10:02;;;;;;;0.00;0.00;;;17.10;95.10;;;;;;4016241;29;20128;-61
2022/10/27 09:13:02;;;;;;;0.00;0.00;;;17.10;95.00;;;;;;4016129;29;20139;-61
2022/10/27 09:15:45;;;;;;;0.28;0.28;;;17.10;95.00;;;;;;4000870;29;20194;-61
2022/10/27 09:18:30;;;;;;;0.00;0.00;;;17.20;95.00;;;;;;4005006;29;20052;-62
2022/10/27 09:21:15;;;;;;;0.13;0.13;;;17.20;95.00;;;;;;4016289;29;20501;-62
2022/10/27 09:24:01;;;;;;;0.00;0.00;;;17.20;95.00;;;;;;4015582;29;20052;-61
2022/10/27 09:26:45;;;;;;;0.10;0.10;;;17.20;94.90;;;;;;4015904;29;20064;-61
2022/10/27 09:29:27;;;;;;;0.47;0.47;;;17.20;94.90;;;;;;4016121;29;20068;-61
2022/10/27 09:32:16;;;;;;;0.00;0.00;;;17.20;94.90;;;;;;4016295;29;20056;-61
2022/10/27 09:35:01;;;;;;;0.00;0.00;;;17.20;94.90;;;;;;4016212;29;20052;-61
2022/10/27 09:37:42;;;;;;;0.10;0.10;;;17.20;94.90;;;;;;4005090;29;20057;-63
2022/10/27 09:40:25;;;;;;;0.00;0.00;;;17.30;94.90;;;;;;4015705;29;20068;-63
2022/10/27 09:43:09;;;;;;;0.00;0.00;;;17.20;94.90;;;;;;4009710;29;20101;-64
2022/10/27 09:45:54;;;;;;;0.00;0.00;;;17.20;94.90;;;;;;4015624;29;20065;-64
2022/10/27 09:48:35;;;;;;;0.10;0.10;;;17.20;94.80;;;;;;4006024;29;20060;-64
2022/10/27 09:51:22;;;;;;;0.00;0.00;;;17.30;94.90;;;;;;4016355;29;20060;-64
2022/10/27 09:54:04;;;;;;;0.52;0.52;;;17.30;95.20;;;;;;4016061;29;20056;-64
2022/10/27 09:56:46;;;;;;;0.10;0.10;;;17.30;94.80;;;;;;4016042;29;20057;-64
2022/10/27 09:59:29;;;;;;;0.00;0.00;;;17.30;94.80;;;;;;4016139;29;20088;-63
2022/10/27 10:02:24;;;;;;;0.03;0.03;;;17.30;94.80;;;;;;4015891;29;20528;-63
2022/10/27 10:05:17;;;;;;;0.80;0.80;;;17.30;94.80;;;;;;4015373;29;20513;-64
2022/10/27 10:08:22;;;;;;;0.13;0.13;;;17.40;94.80;;;;;;4015897;29;20186;-64
2022/10/27 10:11:05;;;;;;;0.00;0.00;;;17.40;94.80;;;;;;4015445;29;20788;-64
2022/10/27 10:13:57;;;;;;;0.00;0.00;;;17.40;94.70;;;;;;4015702;29;20069;-65
2022/10/27 10:16:45;;;;;;;1.45;1.35;;;17.40;94.70;;;;;;4014973;29;20060;-64
2022/10/27 10:19:26;;;;;;;1.77;1.55;;;17.40;94.70;;;;;;4015607;29;20052;-64
2022/10/27 10:22:21;;;;;;;0.00;0.00;;;17.40;94.70;;;;;;4015697;29;20065;-64
2022/10/27 10:25:15;;;;;;;0.00;0.00;;;17.40;94.70;;;;;;4015686;29;20061;-64
2022/10/27 10:27:58;;;;;;;0.10;0.10;;;17.40;94.70;;;;;;4015886;29;20215;-64
2022/10/27 10:30:40;;;;;;;0.00;0.00;;;17.40;94.70;;;;;;4015822;29;20064;-64
2022/10/27 10:33:24;;;;;;;0.32;0.32;;;17.40;94.70;;;;;;4015614;29;20468;-64
2022/10/27 10:36:19;;;;;;;0.00;0.00;;;17.40;94.70;;;;;;4015765;29;20067;-64
2022/10/27 10:39:00;;;;;;;0.00;0.00;;;17.50;94.70;;;;;;4018145;29;20402;-64
2022/10/27 10:41:41;;;;;;;0.30;0.30;;;17.50;94.60;;;;;;4018574;29;20505;-64
2022/10/27 10:44:22;;;;;;;0.00;0.00;;;17.50;95.00;;;;;;4018206;29;20060;-64
2022/10/27 10:47:06;;;;;;;0.05;0.05;;;17.50;94.50;;;;;;4015929;29;20072;-65
2022/10/27 10:49:51;;;;;;;0.00;0.00;;;17.50;94.50;;;;;;4018269;29;20189;-64
2022/10/27 10:52:38;;;;;;;0.00;0.00;;;17.50;94.50;;;;;;4018045;29;20468;-63
2022/10/27 10:55:23;;;;;;;0.00;0.00;;;17.60;94.50;;;;;;4018174;29;20064;-64
2022/10/27 10:58:04;;;;;;;0.57;0.57;;;17.60;94.50;;;;;;4018154;29;20053;-64
2022/10/27 11:00:54;;;;;;;0.00;0.00;;;17.60;94.40;;;;;;4018203;29;20056;-64
2022/10/27 11:03:42;;;;;;;0.00;0.00;;;17.60;94.40;;;;;;4017992;29;20092;-64
2022/10/27 11:06:23;;;;;;;0.03;0.03;;;17.60;94.40;;;;;;4013831;29;20850;-64
2022/10/27 11:09:04;;;;;;;0.00;0.00;;;17.60;94.40;;;;;;4032778;29;20056;-63
2022/10/27 11:11:47;;;;;;;0.00;0.00;;;17.70;94.70;;;;;;4033599;29;20067;-64
2022/10/27 11:14:29;;;;;;;0.52;0.52;;;17.70;94.30;;;;;;4033299;29;20060;-64
2022/10/27 11:17:10;;;;;;;0.30;0.30;;;17.70;94.30;;;;;;4032049;29;20189;-64
2022/10/27 11:19:54;;;;;;;0.00;0.00;;;17.80;94.30;;;;;;4020719;29;20061;-64
2022/10/27 11:22:37;;;;;;;0.35;0.35;;;17.80;94.30;;;;;;4019797;29;20441;-65
2022/10/27 11:25:21;;;;;;;0.00;0.00;;;17.80;94.20;;;;;;4033003;29;20412;-64
2022/10/27 11:28:10;;;;;;;0.00;0.00;;;17.80;94.20;;;;;;4033296;29;20059;-64
2022/10/27 11:30:59;;;;;;;0.10;0.10;;;17.80;94.20;;;;;;4032658;29;20137;-64
2022/10/27 11:33:47;;;;;;;0.00;0.00;;;17.80;94.20;;;;;;4033530;29;20132;-65
2022/10/27 11:36:33;;;;;;;39.38;3.72;;;17.80;94.10;;;;;;4025506;29;20132;-64
2022/10/27 11:39:21;;;;;;;0.32;0.32;;;17.90;94.20;;;;;;4021703;29;20505;-64
2022/10/27 11:42:10;;;;;;;0.00;0.00;;;18.00;94.20;;;;;;4017657;29;20053;-64
2022/10/27 11:44:58;;;;;;;0.03;0.03;;;18.00;94.10;;;;;;4024266;29;20056;-65
2022/10/27 11:47:45;;;;;;;0.00;0.00;;;18.00;93.90;;;;;;4032419;29;20056;-64
2022/10/27 11:50:31;;;;;;;0.00;0.00;;;18.00;94.20;;;;;;4033044;29;20421;-65
2022/10/27 11:53:14;;;;;;;0.10;0.10;;;18.10;93.70;;;;;;4021514;29;20143;-65
2022/10/27 11:56:22;;;;;;;0.00;0.00;;;18.10;93.60;;;;;;4032246;29;20068;-66
2022/10/27 11:59:18;;;;;;;0.00;0.00;;;18.10;93.60;;;;;;4032447;29;20220;-66
2022/10/27 12:02:18;;;;;;;0.10;0.10;;;18.10;93.50;;;;;;4031028;29;20156;-66
2022/10/27 12:05:03;;;;;;;0.10;0.10;;;18.10;93.50;;;;;;4016991;29;20194;-63
2022/10/27 12:07:57;;;;;;;0.00;0.00;;;18.10;93.50;;;;;;4024688;29;20064;-62
2022/10/27 12:10:49;;;;;;;0.00;0.00;;;18.10;93.50;;;;;;4032209;29;20051;-62
2022/10/27 12:13:38;;;;;;;0.00;0.00;;;18.20;93.50;;;;;;4032299;29;20068;-62
2022/10/27 12:16:24;;;;;;;0.00;0.00;;;18.20;93.60;;;;;;4032808;29;20193;-62
2022/10/27 12:19:09;;;;;;;0.10;0.10;;;18.20;93.60;;;;;;4010608;29;20124;-62
2022/10/27 12:21:54;;;;;;;0.00;0.00;;;18.20;93.60;;;;;;4032581;29;20081;-62
2022/10/27 12:24:39;;;;;;;0.00;0.00;;;18.20;93.80;;;;;;4017202;29;20116;-62
2022/10/27 12:27:24;;;;;;;0.08;0.08;;;18.30;93.90;;;;;;4017145;29;20191;-62
2022/10/27 12:30:12;;;;;;;0.00;0.00;;;18.30;93.90;;;;;;4005725;29;20060;-62
2022/10/27 12:32:59;;;;;;;0.00;0.00;;;18.40;94.00;;;;;;4028354;29;20077;-62
2022/10/27 12:35:45;;;;;;;0.50;0.50;;;18.40;93.90;;;;;;4030140;29;20071;-63
2022/10/27 12:38:31;;;;;;;0.00;0.00;;;18.40;93.90;;;;;;4031566;29;20512;-62
2022/10/27 12:41:23;;;;;;;0.08;0.08;;;18.50;93.90;;;;;;4027778;29;20056;-64
2022/10/27 12:44:16;;;;;;;0.25;0.20;;;18.50;94.00;;;;;;4032202;29;20189;-63
2022/10/27 12:47:08;;;;;;;0.00;0.00;;;18.50;94.00;;;;;;4032526;29;20051;-63
2022/10/27 12:50:01;;;;;;;0.00;0.00;;;18.60;94.00;;;;;;4030935;29;20052;-63
2022/10/27 12:52:49;;;;;;;0.00;0.00;;;18.50;94.00;;;;;;4031842;29;20052;-63
2022/10/27 12:55:44;;;;;;;0.00;0.00;;;18.60;94.00;;;;;;4031846;29;20445;-63
2022/10/27 12:58:36;;;;;;;0.00;0.00;;;18.60;94.00;;;;;;4031571;29;20843;-65
2022/10/27 13:01:33;;;;;;;0.00;0.00;;;18.60;94.00;;;;;;4029475;29;20059;-65
2022/10/27 13:04:52;;;;;;;0.00;0.00;;;18.60;94.00;;;;;;4020347;29;20048;-65
2022/10/27 13:08:20;;;;;;;0.50;0.50;;;18.60;94.00;;;;;;4016613;29;20217;-61
2022/10/27 13:11:22;;;;;;;0.00;0.00;;;18.60;94.00;;;;;;4015730;29;20052;-62
2022/10/27 13:14:25;;;;;;;0.00;0.00;;;18.60;94.00;;;;;;4004833;29;20065;-62
2022/10/27 13:17:14;;;;;;;1.27;1.10;;;18.60;94.00;;;;;;4016288;29;20056;-62
2022/10/27 13:20:03;;;;;;;0.10;0.10;;;18.60;94.00;;;;;;4031149;29;20060;-62
2022/10/27 13:22:53;;;;;;;0.00;0.00;;;18.60;94.40;;;;;;4031601;29;20531;-62
2022/10/27 13:25:39;;;;;;;0.00;0.00;;;18.60;93.90;;;;;;4031694;29;20063;-62
2022/10/27 13:28:24;;;;;;;0.00;0.00;;;18.60;93.90;;;;;;4030872;29;20056;-62
2022/10/27 13:31:13;;;;;;;0.00;0.00;;;18.70;94.00;;;;;;4031165;29;20059;-62
2022/10/27 13:34:18;;;;;;;0.00;0.00;;;18.60;93.90;;;;;;4031710;29;20551;-63
2022/10/27 13:37:33;;;;;;;2.05;1.25;;;18.70;93.90;;;;;;4030362;29;20059;-62
2022/10/27 13:40:36;;;;;;;0.00;0.00;;;18.70;93.90;;;;;;4015829;29;20065;-62
2022/10/27 13:43:46;;;;;;;0.00;0.00;;;18.70;93.90;;;;;;4015861;29;20413;-62
2022/10/27 13:47:09;;;;;;;0.00;0.00;;;18.70;93.90;;;;;;4009148;29;20068;-62
2022/10/27 13:49:53;;;;;;;0.00;0.00;;;18.70;93.90;;;;;;4029373;29;20404;-63
2022/10/27 13:52:34;;;;;;;0.00;0.00;;;18.70;93.90;;;;;;4031288;29;20201;-62
2022/10/27 13:55:34;;;;;;;0.00;0.00;;;18.70;93.80;;;;;;4031679;29;20052;-62
2022/10/27 13:58:32;;;;;;;0.00;0.00;;;18.70;93.80;;;;;;4015810;29;20052;-62
2022/10/27 14:01:32;;;;;;;0.00;0.00;;;18.70;93.80;;;;;;4015882;29;20430;-61
2022/10/27 14:04:34;;;;;;;0.00;0.00;;;18.70;93.80;;;;;;4015680;29;20074;-62
2022/10/27 14:07:17;;;;;;;0.00;0.00;;;18.70;93.80;;;;;;4010660;29;20816;-62
2022/10/27 14:09:58;;;;;;;0.35;0.35;;;18.70;93.70;;;;;;4016036;29;20060;-62
2022/10/27 14:12:38;;;;;;;0.00;0.00;;;18.70;94.10;;;;;;4017947;29;20137;-62
2022/10/27 14:15:24;;;;;;;0.00;0.00;;;18.70;93.70;;;;;;4019009;29;20072;-62
2022/10/27 14:18:15;;;;;;;0.00;0.00;;;18.70;93.70;;;;;;4004672;29;20052;-62
2022/10/27 14:21:01;;;;;;;0.00;0.00;;;18.70;93.60;;;;;;4007242;29;20068;-61